createdAt,value
2023-04-17T00:02:19.954Z,86.60
2023-04-17T00:04:47.380Z,86.50
2023-04-17T00:07:14.690Z,86.40
2023-04-17T00:09:41.842Z,86.40
2023-04-17T00:12:09.423Z,86.30
2023-04-17T00:14:36.586Z,86.10
2023-04-17T00:17:03.748Z,86.10
2023-04-17T00:19:30.881Z,86.10
2023-04-17T00:21:57.919Z,86.00
2023-04-17T00:24:24.907Z,86.00
2023-04-17T00:26:51.910Z,85.80
2023-04-17T00:29:19.205Z,85.70
2023-04-17T00:31:46.187Z,85.70
2023-04-17T00:34:13.257Z,85.50
2023-04-17T00:36:40.692Z,85.40
2023-04-17T00:39:08.067Z,85.30
2023-04-17T00:41:35.318Z,85.20
2023-04-17T00:44:02.544Z,85.10
2023-04-17T00:46:30.025Z,85.10
2023-04-17T00:48:56.909Z,85.00
2023-04-17T00:51:24.040Z,85.00
2023-04-17T00:53:51.570Z,85.00
2023-04-17T00:56:18.919Z,85.00
2023-04-17T00:58:46.719Z,84.90
2023-04-17T01:01:13.939Z,84.90
2023-04-17T01:03:41.569Z,84.90
2023-04-17T01:06:09.239Z,84.70
2023-04-17T01:08:45.919Z,84.60
2023-04-17T01:11:13.065Z,84.50
2023-04-17T01:13:51.429Z,84.40
2023-04-17T01:16:19.756Z,84.40
2023-04-17T01:18:48.381Z,84.30
2023-04-17T01:21:15.973Z,84.20
2023-04-17T01:23:53.333Z,84.20
2023-04-17T01:26:23.854Z,84.00
2023-04-17T01:28:58.730Z,84.10
2023-04-17T01:31:30.398Z,83.80
2023-04-17T01:33:57.491Z,83.80
2023-04-17T01:36:24.487Z,83.80
2023-04-17T01:38:52.146Z,83.80
2023-04-17T01:41:19.206Z,83.70
2023-04-17T01:43:47.690Z,83.70
2023-04-17T01:46:15.120Z,83.70
2023-04-17T01:48:42.239Z,83.70
2023-04-17T01:51:09.315Z,83.70
2023-04-17T01:53:37.809Z,83.70
2023-04-17T01:56:04.872Z,83.70
2023-04-17T01:58:31.843Z,83.70
2023-04-17T02:01:00.471Z,83.60
2023-04-17T02:03:28.133Z,83.50
2023-04-17T02:05:55.605Z,83.50
2023-04-17T02:08:22.669Z,83.40
2023-04-17T02:10:49.958Z,83.40
2023-04-17T02:13:16.987Z,83.20
2023-04-17T02:15:44.057Z,83.10
2023-04-17T02:18:11.492Z,83.10
2023-04-17T02:20:39.404Z,83.00
2023-04-17T02:23:07.067Z,82.90
2023-04-17T02:25:34.808Z,82.90
2023-04-17T02:28:03.818Z,83.00
2023-04-17T02:30:30.968Z,83.00
2023-04-17T02:32:59.007Z,83.00
2023-04-17T02:35:28.507Z,82.90
2023-04-17T02:37:57.490Z,83.00
2023-04-17T02:40:24.575Z,82.90
2023-04-17T02:42:56.806Z,82.90
2023-04-17T02:45:23.960Z,83.00
2023-04-17T02:47:51.167Z,83.00
2023-04-17T02:50:18.648Z,83.00
2023-04-17T02:53:08.865Z,83.10
2023-04-17T02:55:36.233Z,83.20
2023-04-17T02:58:03.353Z,83.20
2023-04-17T03:00:30.333Z,83.40
2023-04-17T03:02:57.497Z,83.40
2023-04-17T03:05:24.652Z,83.60
2023-04-17T03:07:53.845Z,83.70
2023-04-17T03:10:21.097Z,83.90
2023-04-17T03:12:48.970Z,84.10
2023-04-17T03:15:16.239Z,84.40
2023-04-17T03:17:43.702Z,84.60
2023-04-17T03:20:11.351Z,84.80
2023-04-17T03:22:38.448Z,84.80
2023-04-17T03:25:07.250Z,84.90
2023-04-17T03:27:44.631Z,85.00
2023-04-17T03:30:12.871Z,85.00
2023-04-17T03:32:42.721Z,85.10
2023-04-17T03:35:09.744Z,85.20
2023-04-17T03:37:36.608Z,85.20
2023-04-17T03:40:05.996Z,85.40
2023-04-17T03:42:33.182Z,85.50
2023-04-17T03:45:00.215Z,85.70
2023-04-17T03:47:29.407Z,85.70
2023-04-17T03:49:57.313Z,85.80
2023-04-17T03:52:25.455Z,85.90
2023-04-17T03:54:56.838Z,86.00
2023-04-17T03:57:25.523Z,86.00
2023-04-17T03:59:53.312Z,86.10
2023-04-17T04:02:20.855Z,86.10
2023-04-17T04:04:50.484Z,86.30
2023-04-17T04:07:17.851Z,86.40
2023-04-17T04:09:45.373Z,86.50
2023-04-17T04:12:12.699Z,86.60
2023-04-17T04:14:42.622Z,86.70
2023-04-17T04:17:10.916Z,87.60
2023-04-17T04:19:39.578Z,87.00
2023-04-17T04:22:07.817Z,87.10
2023-04-17T04:24:42.715Z,87.10
2023-04-17T04:27:12.067Z,87.20
2023-04-17T04:29:39.240Z,87.30
2023-04-17T04:32:09.700Z,87.40
2023-04-17T04:34:44.827Z,87.40
2023-04-17T04:37:15.630Z,87.30
2023-04-17T04:39:44.605Z,87.30
2023-04-17T04:42:22.411Z,87.20
2023-04-17T04:45:08.616Z,87.10
2023-04-17T04:47:36.334Z,87.20
2023-04-17T04:50:03.704Z,87.10
2023-04-17T04:52:31.556Z,87.10
2023-04-17T04:55:02.739Z,87.20
2023-04-17T04:57:31.797Z,87.40
2023-04-17T05:00:01.657Z,87.30
2023-04-17T05:02:34.206Z,87.30
2023-04-17T05:05:02.253Z,87.30
2023-04-17T05:07:32.516Z,87.40
2023-04-17T05:10:00.813Z,87.40
2023-04-17T05:12:33.046Z,87.60
2023-04-17T05:15:00.150Z,87.60
2023-04-17T05:17:34.662Z,87.70
2023-04-17T05:20:07.441Z,87.80
2023-04-17T05:22:38.821Z,87.90
2023-04-17T05:25:11.909Z,87.80
2023-04-17T05:27:39.788Z,87.80
2023-04-17T05:30:08.366Z,87.70
2023-04-17T05:32:36.694Z,87.70
2023-04-17T05:35:24.335Z,87.70
2023-04-17T05:37:52.275Z,87.60
2023-04-17T05:40:19.796Z,87.60
2023-04-17T05:42:46.850Z,87.50
2023-04-17T05:45:16.137Z,87.50
2023-04-17T05:47:43.330Z,87.30
2023-04-17T05:50:11.196Z,87.10
2023-04-17T05:52:39.429Z,86.80
2023-04-17T05:55:09.591Z,86.60
2023-04-17T05:57:38.056Z,86.50
2023-04-17T06:00:11.399Z,86.30
2023-04-17T06:02:43.236Z,86.00
2023-04-17T06:05:16.617Z,85.80
2023-04-17T06:07:45.404Z,85.60
2023-04-17T06:10:12.837Z,85.50
2023-04-17T06:12:40.096Z,85.40
2023-04-17T06:15:11.736Z,85.30
2023-04-17T06:17:39.768Z,85.20
2023-04-17T06:20:11.927Z,85.20
2023-04-17T06:22:40.681Z,85.10
2023-04-17T06:25:08.594Z,84.90
2023-04-17T06:27:37.244Z,84.80
2023-04-17T06:30:06.755Z,84.60
2023-04-17T06:32:43.855Z,84.40
2023-04-17T06:35:11.496Z,84.20
2023-04-17T06:37:44.317Z,83.80
2023-04-17T06:40:15.150Z,83.60
2023-04-17T06:42:42.159Z,83.30
2023-04-17T06:45:13.279Z,83.10
2023-04-17T06:47:42.380Z,82.90
2023-04-17T06:50:10.089Z,82.80
2023-04-17T06:52:36.993Z,82.70
2023-04-17T06:55:05.040Z,82.60
2023-04-17T06:57:34.370Z,82.50
2023-04-17T07:00:02.761Z,82.30
2023-04-17T07:02:30.898Z,82.30
2023-04-17T07:04:58.213Z,82.10
2023-04-17T07:07:26.954Z,82.00
2023-04-17T07:09:53.931Z,81.80
2023-04-17T07:12:22.581Z,81.80
2023-04-17T07:14:51.336Z,81.70
2023-04-17T07:17:18.808Z,81.80
2023-04-17T07:19:45.945Z,81.80
2023-04-17T07:22:13.023Z,81.70
2023-04-17T07:24:40.066Z,81.70
2023-04-17T07:27:07.326Z,82.30
2023-04-17T07:29:35.493Z,81.60
2023-04-17T07:32:04.224Z,81.60
2023-04-17T07:34:34.629Z,81.30
2023-04-17T07:37:01.968Z,81.10
2023-04-17T07:39:31.594Z,80.70
2023-04-17T07:41:58.855Z,80.70
2023-04-17T07:44:25.931Z,80.50
2023-04-17T07:46:52.932Z,80.50
2023-04-17T07:49:19.992Z,80.70
2023-04-17T07:51:47.094Z,80.90
2023-04-17T07:54:14.136Z,81.10
2023-04-17T07:56:41.073Z,80.90
2023-04-17T07:59:08.310Z,80.60
2023-04-17T08:01:35.792Z,80.20
2023-04-17T08:04:03.433Z,79.80
2023-04-17T08:06:31.242Z,79.50
2023-04-17T08:09:00.218Z,79.10
2023-04-17T08:11:27.577Z,78.60
2023-04-17T08:13:55.977Z,78.30
2023-04-17T08:16:23.153Z,77.90
2023-04-17T08:18:50.541Z,77.30
2023-04-17T08:21:18.017Z,76.90
2023-04-17T08:23:44.931Z,76.30
2023-04-17T08:26:12.128Z,75.80
2023-04-17T08:28:39.378Z,75.50
2023-04-17T08:31:08.518Z,75.00
2023-04-17T08:33:36.048Z,74.70
2023-04-17T08:36:09.568Z,75.40
2023-04-17T08:38:37.253Z,74.50
2023-04-17T08:41:08.633Z,74.70
2023-04-17T08:43:36.414Z,74.60
2023-04-17T08:46:03.973Z,74.30
2023-04-17T08:48:31.529Z,74.20
2023-04-17T08:50:58.817Z,73.80
2023-04-17T08:53:26.017Z,73.20
2023-04-17T08:55:52.870Z,72.90
2023-04-17T08:58:22.027Z,72.70
2023-04-17T09:00:49.357Z,72.30
2023-04-17T09:03:16.692Z,71.80
2023-04-17T09:05:46.355Z,71.40
2023-04-17T09:08:26.194Z,70.90
2023-04-17T09:10:54.988Z,70.20
2023-04-17T09:13:29.333Z,70.20
2023-04-17T09:16:06.287Z,70.20
2023-04-17T09:18:35.466Z,69.80
2023-04-17T09:21:04.849Z,70.00
2023-04-17T09:23:56.338Z,69.80
2023-04-17T09:26:26.822Z,69.70
2023-04-17T09:29:12.326Z,69.40
2023-04-17T09:31:42.949Z,69.30
2023-04-17T09:34:13.002Z,69.70
2023-04-17T09:36:43.190Z,69.90
2023-04-17T09:39:24.226Z,70.40
2023-04-17T09:42:04.492Z,69.60
2023-04-17T09:44:32.319Z,69.70
2023-04-17T09:47:01.785Z,69.30
2023-04-17T09:49:49.427Z,68.60
2023-04-17T09:52:17.103Z,66.80
2023-04-17T09:54:45.521Z,66.70
2023-04-17T09:57:13.205Z,65.60
2023-04-17T09:59:42.037Z,64.90
2023-04-17T10:02:11.453Z,64.30
2023-04-17T10:04:43.540Z,64.20
2023-04-17T10:07:13.380Z,63.60
2023-04-17T10:09:42.295Z,63.30
2023-04-17T10:12:18.743Z,63.00
2023-04-17T10:14:50.350Z,61.70
2023-04-17T10:17:32.638Z,61.30
2023-04-17T10:20:18.450Z,60.70
2023-04-17T10:22:56.472Z,60.70
2023-04-17T10:25:28.326Z,61.40
2023-04-17T10:28:00.978Z,61.50
2023-04-17T10:30:54.948Z,61.60
2023-04-17T10:33:25.518Z,60.70
2023-04-17T10:35:53.825Z,61.90
2023-04-17T10:38:35.714Z,62.60
2023-04-17T10:41:08.880Z,61.30
2023-04-17T10:43:40.576Z,62.90
2023-04-17T10:46:13.073Z,61.70
2023-04-17T10:48:52.588Z,58.50
2023-04-17T10:51:27.116Z,56.70
2023-04-17T10:53:58.352Z,53.70
2023-04-17T10:56:31.478Z,51.80
2023-04-17T10:59:03.325Z,51.00
2023-04-17T11:01:53.606Z,50.80
2023-04-17T11:04:36.344Z,50.50
2023-04-17T11:07:03.714Z,49.50
2023-04-17T11:09:30.873Z,49.10
2023-04-17T11:12:02.262Z,48.20
2023-04-17T11:14:30.381Z,47.70
2023-04-17T11:16:57.641Z,47.50
2023-04-17T11:19:26.521Z,47.30
2023-04-17T11:22:01.439Z,47.00
2023-04-17T11:24:30.993Z,47.10
2023-04-17T11:27:00.220Z,47.20
2023-04-17T11:29:28.030Z,47.40
2023-04-17T11:31:57.163Z,48.10
2023-04-17T11:34:27.399Z,48.60
2023-04-17T11:36:59.883Z,49.00
2023-04-17T11:39:31.500Z,49.50
2023-04-17T11:41:58.749Z,49.90
2023-04-17T11:44:26.631Z,50.30
2023-04-17T11:47:01.366Z,50.50
2023-04-17T11:49:39.444Z,51.10
2023-04-17T11:52:06.699Z,51.80
2023-04-17T11:54:38.464Z,52.40
2023-04-17T11:57:14.157Z,52.60
2023-04-17T11:59:42.799Z,52.80
2023-04-17T12:02:10.517Z,53.20
2023-04-17T12:04:40.130Z,53.70
2023-04-17T12:07:08.974Z,53.70
2023-04-17T12:09:36.889Z,53.90
2023-04-17T12:12:06.944Z,53.90
2023-04-17T12:14:34.046Z,53.90
2023-04-17T12:17:01.475Z,54.10
2023-04-17T12:19:29.482Z,54.10
2023-04-17T12:21:57.617Z,54.20
2023-04-17T12:24:25.357Z,54.40
2023-04-17T12:26:53.261Z,54.80
2023-04-17T12:29:32.225Z,54.90
2023-04-17T12:32:08.280Z,55.20
2023-04-17T12:34:35.750Z,55.40
2023-04-17T12:37:02.861Z,55.70
2023-04-17T12:39:30.182Z,56.10
2023-04-17T12:41:57.107Z,56.50
2023-04-17T12:44:24.132Z,57.00
2023-04-17T12:46:51.113Z,57.20
2023-04-17T12:49:18.601Z,57.50
2023-04-17T12:51:45.647Z,57.90
2023-04-17T12:54:13.333Z,58.30
2023-04-17T12:56:40.923Z,58.80
2023-04-17T12:59:08.313Z,59.20
2023-04-17T13:01:35.349Z,59.10
2023-04-17T13:04:02.701Z,59.10
2023-04-17T13:06:29.853Z,59.00
2023-04-17T13:08:56.833Z,59.10
2023-04-17T13:11:23.898Z,59.20
2023-04-17T13:13:50.973Z,59.30
2023-04-17T13:16:18.169Z,59.40
2023-04-17T13:18:45.232Z,59.30
2023-04-17T13:21:12.375Z,59.40
2023-04-17T13:23:39.491Z,59.40
2023-04-17T13:26:06.427Z,59.60
2023-04-17T13:28:33.514Z,59.80
2023-04-17T13:31:00.730Z,60.10
2023-04-17T13:33:27.724Z,60.40
2023-04-17T13:35:54.814Z,60.50
2023-04-17T13:38:22.105Z,60.50
2023-04-17T13:40:49.346Z,60.60
2023-04-17T13:43:17.173Z,60.60
2023-04-17T13:45:44.284Z,60.50
2023-04-17T13:48:11.560Z,60.50
2023-04-17T13:50:39.535Z,60.80
2023-04-17T13:53:07.051Z,61.20
2023-04-17T13:55:35.329Z,61.40
2023-04-17T13:58:02.513Z,61.90
2023-04-17T14:00:30.143Z,62.40
2023-04-17T14:02:57.365Z,62.40
2023-04-17T14:05:24.383Z,62.60
2023-04-17T14:07:51.343Z,62.60
2023-04-17T14:10:18.360Z,62.70
2023-04-17T14:12:45.505Z,62.80
2023-04-17T14:15:13.193Z,63.00
2023-04-17T14:17:43.061Z,63.20
2023-04-17T14:20:12.031Z,63.60
2023-04-17T14:22:39.603Z,64.10
2023-04-17T14:25:07.106Z,64.70
2023-04-17T14:27:36.394Z,65.30
2023-04-17T14:30:04.252Z,65.50
2023-04-17T14:32:31.523Z,66.20
2023-04-17T14:34:59.375Z,67.60
2023-04-17T14:37:26.977Z,67.00
2023-04-17T14:39:53.988Z,67.50
2023-04-17T14:42:20.964Z,68.30
2023-04-17T14:44:48.184Z,68.60
2023-04-17T14:47:15.245Z,69.30
2023-04-17T14:49:42.447Z,69.50
2023-04-17T14:52:09.349Z,69.80
2023-04-17T14:54:36.376Z,70.10
2023-04-17T14:57:03.461Z,70.40
2023-04-17T14:59:31.028Z,70.40
2023-04-17T15:01:58.337Z,70.30
2023-04-17T15:04:26.139Z,70.60
2023-04-17T15:06:53.142Z,70.80
2023-04-17T15:09:20.271Z,71.00
2023-04-17T15:11:47.612Z,71.30
2023-04-17T15:14:14.611Z,71.50
2023-04-17T15:16:41.932Z,71.60
2023-04-17T15:19:09.464Z,71.30
2023-04-17T15:21:36.505Z,71.10
2023-04-17T15:24:03.709Z,70.70
2023-04-17T15:26:33.287Z,70.40
2023-04-17T15:29:00.982Z,70.30
2023-04-17T15:31:28.216Z,70.00
2023-04-17T15:33:55.253Z,70.00
2023-04-17T15:36:22.148Z,70.20
2023-04-17T15:38:49.108Z,70.40
2023-04-17T15:41:16.084Z,70.50
2023-04-17T15:43:43.256Z,70.60
2023-04-17T15:46:10.747Z,70.90
2023-04-17T15:48:40.721Z,71.00
2023-04-17T15:51:08.216Z,71.00
2023-04-17T15:53:35.692Z,71.10
2023-04-17T15:56:02.958Z,71.30
2023-04-17T15:58:29.995Z,71.60
2023-04-17T16:00:56.977Z,71.90
2023-04-17T16:03:24.427Z,72.10
2023-04-17T16:05:53.949Z,72.40
2023-04-17T16:08:21.258Z,72.60
2023-04-17T16:10:48.197Z,72.90
2023-04-17T16:13:16.431Z,72.90
2023-04-17T16:15:43.565Z,73.30
2023-04-17T16:18:11.677Z,73.10
2023-04-17T16:20:39.302Z,73.20
2023-04-17T16:23:06.864Z,73.40
2023-04-17T16:25:34.009Z,73.40
2023-04-17T16:28:00.905Z,73.70
2023-04-17T16:30:28.100Z,73.70
2023-04-17T16:32:55.502Z,73.90
2023-04-17T16:35:23.000Z,74.00
2023-04-17T16:37:49.932Z,74.10
2023-04-17T16:40:17.896Z,74.30
2023-04-17T16:42:45.360Z,74.40
2023-04-17T16:45:12.737Z,74.50
2023-04-17T16:47:39.846Z,74.60
2023-04-17T16:50:09.848Z,74.70
2023-04-17T16:52:40.732Z,74.80
2023-04-17T16:55:08.755Z,74.90
2023-04-17T16:57:38.137Z,75.00
2023-04-17T17:00:08.303Z,75.20
2023-04-17T17:02:36.861Z,75.30
2023-04-17T17:05:04.929Z,75.40
2023-04-17T17:07:32.134Z,75.60
2023-04-17T17:09:59.132Z,76.50
2023-04-17T17:12:26.377Z,75.90
2023-04-17T17:14:53.885Z,76.20
2023-04-17T17:17:21.228Z,76.40
2023-04-17T17:19:48.326Z,76.50
2023-04-17T17:22:15.623Z,76.80
2023-04-17T17:24:42.770Z,77.20
2023-04-17T17:27:10.167Z,77.40
2023-04-17T17:29:37.150Z,77.50
2023-04-17T17:32:04.706Z,78.40
2023-04-17T17:34:32.585Z,77.80
2023-04-17T17:36:59.891Z,78.00
2023-04-17T17:39:27.003Z,78.30
2023-04-17T17:41:55.805Z,78.40
2023-04-17T17:44:22.938Z,78.90
2023-04-17T17:46:50.186Z,79.00
2023-04-17T17:49:17.501Z,79.10
2023-04-17T17:51:44.728Z,79.40
2023-04-17T17:54:12.379Z,79.60
2023-04-17T17:56:40.329Z,79.80
2023-04-17T17:59:07.794Z,80.00
2023-04-17T18:01:36.377Z,80.40
2023-04-17T18:04:03.763Z,80.50
2023-04-17T18:06:31.701Z,80.70
2023-04-17T18:08:59.176Z,81.00
2023-04-17T18:11:27.400Z,81.50
2023-04-17T18:13:54.821Z,81.80
2023-04-17T18:16:22.664Z,82.10
2023-04-17T18:18:49.838Z,82.40
2023-04-17T18:21:18.649Z,82.50
2023-04-17T18:23:45.690Z,82.90
2023-04-17T18:26:13.027Z,82.80
2023-04-17T18:28:40.133Z,83.00
2023-04-17T18:31:07.519Z,83.10
2023-04-17T18:33:34.499Z,83.30
2023-04-17T18:36:01.596Z,83.30
2023-04-17T18:38:28.619Z,83.40
2023-04-17T18:40:57.443Z,83.40
2023-04-17T18:43:26.568Z,83.60
2023-04-17T18:45:54.103Z,83.70
2023-04-17T18:48:21.684Z,83.70
2023-04-17T18:50:49.037Z,83.80
2023-04-17T18:53:16.183Z,83.80
2023-04-17T18:55:43.255Z,83.90
2023-04-17T18:58:10.612Z,83.90
2023-04-17T19:00:37.899Z,83.80
2023-04-17T19:03:05.252Z,84.00
2023-04-17T19:05:32.476Z,84.00
2023-04-17T19:07:59.806Z,84.00
2023-04-17T19:10:26.767Z,84.10
2023-04-17T19:12:53.972Z,84.20
2023-04-17T19:15:21.422Z,84.20
2023-04-17T19:17:48.925Z,84.10
2023-04-17T19:20:16.686Z,84.20
2023-04-17T19:22:44.047Z,84.10
2023-04-17T19:25:11.289Z,84.10
2023-04-17T19:27:38.251Z,84.20
2023-04-17T19:30:08.888Z,84.20
2023-04-17T19:32:35.981Z,84.20
2023-04-17T19:35:03.078Z,84.20
2023-04-17T19:37:30.262Z,84.10
2023-04-17T19:39:57.241Z,84.10
2023-04-17T19:42:24.440Z,84.30
2023-04-17T19:44:51.581Z,84.30
2023-04-17T19:47:18.656Z,84.10
2023-04-17T19:49:45.924Z,84.10
2023-04-17T19:52:13.725Z,84.10
2023-04-17T19:54:42.735Z,84.00
2023-04-17T19:57:09.891Z,84.10
2023-04-17T19:59:37.125Z,84.10
2023-04-17T20:02:04.280Z,84.10
2023-04-17T20:04:31.664Z,84.10
2023-04-17T20:06:58.896Z,84.00
2023-04-17T20:09:26.054Z,84.00
2023-04-17T20:11:53.021Z,84.00
2023-04-17T20:14:20.831Z,84.00
2023-04-17T20:16:50.296Z,84.00
2023-04-17T20:19:17.410Z,84.10
2023-04-17T20:21:44.752Z,84.00
2023-04-17T20:24:12.926Z,84.00
2023-04-17T20:26:39.940Z,84.00
2023-04-17T20:29:07.174Z,83.90
2023-04-17T20:31:36.403Z,84.00
2023-04-17T20:34:03.807Z,83.90
2023-04-17T20:36:31.392Z,83.80
2023-04-17T20:38:58.261Z,83.70
2023-04-17T20:41:25.198Z,83.60
2023-04-17T20:43:59.828Z,83.60
2023-04-17T20:46:27.918Z,83.70
2023-04-17T20:48:55.001Z,83.50
2023-04-17T20:51:25.090Z,83.40
2023-04-17T20:53:53.441Z,83.40
2023-04-17T20:56:21.873Z,83.30
2023-04-17T20:58:49.065Z,83.20
2023-04-17T21:01:16.697Z,83.20
2023-04-17T21:03:44.102Z,83.10
2023-04-17T21:06:11.800Z,83.20
2023-04-17T21:08:38.946Z,83.20
2023-04-17T21:11:05.943Z,83.20
2023-04-17T21:13:33.229Z,83.20
2023-04-17T21:16:00.642Z,83.20
2023-04-17T21:18:27.600Z,83.20
2023-04-17T21:20:54.572Z,83.20
2023-04-17T21:23:21.778Z,83.10
2023-04-17T21:25:51.874Z,83.10
2023-04-17T21:28:19.328Z,83.10
2023-04-17T21:30:47.194Z,83.00
2023-04-17T21:33:14.543Z,83.00
2023-04-17T21:35:44.967Z,83.00
2023-04-17T21:38:12.853Z,83.10
2023-04-17T21:40:50.531Z,82.90
2023-04-17T21:43:18.331Z,82.90
2023-04-17T21:45:45.827Z,82.80
2023-04-17T21:48:15.182Z,82.80
2023-04-17T21:50:43.233Z,82.70
2023-04-17T21:53:10.654Z,82.60
2023-04-17T21:55:38.514Z,82.60
2023-04-17T21:58:05.604Z,82.50
2023-04-17T22:00:32.660Z,82.50
2023-04-17T22:03:00.691Z,82.30
2023-04-17T22:05:28.167Z,82.30
2023-04-17T22:07:55.773Z,82.30
2023-04-17T22:10:24.181Z,82.30
2023-04-17T22:12:51.516Z,82.30
2023-04-17T22:15:18.871Z,82.40
2023-04-17T22:17:46.306Z,82.40
2023-04-17T22:20:13.472Z,82.40
2023-04-17T22:22:40.551Z,82.40
2023-04-17T22:25:08.242Z,82.60
2023-04-17T22:27:35.367Z,82.70
2023-04-17T22:30:02.346Z,82.90
2023-04-17T22:32:29.465Z,83.00
2023-04-17T22:34:56.427Z,83.00
2023-04-17T22:37:23.358Z,83.20
2023-04-17T22:39:50.343Z,83.30
2023-04-17T22:42:17.554Z,83.40
2023-04-17T22:44:44.653Z,83.50
2023-04-17T22:47:11.631Z,83.60
2023-04-17T22:49:38.654Z,83.90
2023-04-17T22:52:06.872Z,83.90
2023-04-17T22:54:34.548Z,84.00
2023-04-17T22:57:04.957Z,84.10
2023-04-17T22:59:32.123Z,84.20
2023-04-17T23:01:59.127Z,84.30
2023-04-17T23:04:26.241Z,84.30
2023-04-17T23:06:53.584Z,84.30
2023-04-17T23:09:20.763Z,84.30
2023-04-17T23:11:47.907Z,84.30
2023-04-17T23:14:15.132Z,84.20
2023-04-17T23:16:42.578Z,84.20
2023-04-17T23:19:09.665Z,84.00
2023-04-17T23:21:36.688Z,84.00
2023-04-17T23:24:03.839Z,84.00
2023-04-17T23:26:30.891Z,84.00
2023-04-17T23:28:58.030Z,84.00
2023-04-17T23:31:25.121Z,84.10
2023-04-17T23:33:52.203Z,84.10
2023-04-17T23:36:19.266Z,84.20
2023-04-17T23:38:46.369Z,84.30
2023-04-17T23:41:13.553Z,84.30
2023-04-17T23:43:40.805Z,84.30
2023-04-17T23:46:09.333Z,84.40
2023-04-17T23:48:36.492Z,84.50
2023-04-17T23:51:03.874Z,84.50
2023-04-17T23:53:30.794Z,85.30
2023-04-17T23:55:57.986Z,84.60
2023-04-17T23:58:25.063Z,84.50
